<?xml version="1.0" encoding="UTF-8" standalone="no" ?>
<gpx xmlns="http://www.topografix.com/GPX/1/1" xmlns:xsi="http://www.w3.org/2001/XMLSchema-instance" xsi:schemaLocation="http://www.topografix.com/GPX/1/1 http://www.topografix.com/GPX/1/1/gpx.xsd" version="1.1" creator="VisuGPX - https://www.visugpx.com">
  <metadata>
    <name>23 - Peyrat-le-Château : le Lac de Vassivières - St Martin Château</name>
    <desc><![CDATA[ Cet itinéraire fait partie de la collection de EquiLiberté : www.equiliberte.org .Circuit NON ACCESSIBLE aux attelages. Il est proposé par "Cheval en Creuse" , vous trouverez les infos sur leur site. www.chevalencreuse.com]]></desc>
  </metadata>
  <trk>
    <name><![CDATA[23 - Peyrat-le-Château : le Lac de Vassivières - St Martin Château]]></name>
    <trkseg>
      <trkpt lat="45.80749" lon="1.84139">
        <ele>660</ele>
        <time>2020-02-28T12:33:21Z</time>
      </trkpt>
      <trkpt lat="45.80802" lon="1.84139">
        <ele>660</ele>
        <time>2020-02-28T12:34:03Z</time>
      </trkpt>
      <trkpt lat="45.80849" lon="1.84156">
        <ele>659</ele>
        <time>2020-02-28T12:34:42Z</time>
      </trkpt>
      <trkpt lat="45.80925" lon="1.84152">
        <ele>652</ele>
        <time>2020-02-28T12:35:43Z</time>
      </trkpt>
      <trkpt lat="45.80949" lon="1.842">
        <ele>653</ele>
        <time>2020-02-28T12:36:16Z</time>
      </trkpt>
      <trkpt lat="45.8103" lon="1.8415">
        <ele>648</ele>
        <time>2020-02-28T12:37:27Z</time>
      </trkpt>
      <trkpt lat="45.81086" lon="1.84141">
        <ele>648</ele>
        <time>2020-02-28T12:38:12Z</time>
      </trkpt>
      <trkpt lat="45.81139" lon="1.84141">
        <ele>647</ele>
        <time>2020-02-28T12:38:54Z</time>
      </trkpt>
      <trkpt lat="45.81231" lon="1.84141">
        <ele>648</ele>
        <time>2020-02-28T12:40:08Z</time>
      </trkpt>
      <trkpt lat="45.8118" lon="1.84201">
        <ele>657</ele>
        <time>2020-02-28T12:41:01Z</time>
      </trkpt>
      <trkpt lat="45.81104" lon="1.84263">
        <ele>670</ele>
        <time>2020-02-28T12:42:11Z</time>
      </trkpt>
      <trkpt lat="45.81003" lon="1.84369">
        <ele>685</ele>
        <time>2020-02-28T12:43:51Z</time>
      </trkpt>
      <trkpt lat="45.80978" lon="1.84411">
        <ele>690</ele>
        <time>2020-02-28T12:44:22Z</time>
      </trkpt>
      <trkpt lat="45.80964" lon="1.84482">
        <ele>697</ele>
        <time>2020-02-28T12:45:03Z</time>
      </trkpt>
      <trkpt lat="45.80913" lon="1.84553">
        <ele>696</ele>
        <time>2020-02-28T12:46:00Z</time>
      </trkpt>
      <trkpt lat="45.80846" lon="1.84614">
        <ele>694</ele>
        <time>2020-02-28T12:47:03Z</time>
      </trkpt>
      <trkpt lat="45.80815" lon="1.84668">
        <ele>693</ele>
        <time>2020-02-28T12:47:42Z</time>
      </trkpt>
      <trkpt lat="45.80776" lon="1.84781">
        <ele>689</ele>
        <time>2020-02-28T12:48:53Z</time>
      </trkpt>
      <trkpt lat="45.8084" lon="1.84783">
        <ele>695</ele>
        <time>2020-02-28T12:49:44Z</time>
      </trkpt>
      <trkpt lat="45.80899" lon="1.84823">
        <ele>699</ele>
        <time>2020-02-28T12:50:36Z</time>
      </trkpt>
      <trkpt lat="45.80969" lon="1.84765">
        <ele>700</ele>
        <time>2020-02-28T12:51:41Z</time>
      </trkpt>
      <trkpt lat="45.81012" lon="1.84775">
        <ele>701</ele>
        <time>2020-02-28T12:52:16Z</time>
      </trkpt>
      <trkpt lat="45.81025" lon="1.8478">
        <ele>700</ele>
        <time>2020-02-28T12:52:27Z</time>
      </trkpt>
      <trkpt lat="45.8111" lon="1.84699">
        <ele>696</ele>
        <time>2020-02-28T12:53:48Z</time>
      </trkpt>
      <trkpt lat="45.81169" lon="1.84711">
        <ele>689</ele>
        <time>2020-02-28T12:54:36Z</time>
      </trkpt>
      <trkpt lat="45.81196" lon="1.8474">
        <ele>686</ele>
        <time>2020-02-28T12:55:03Z</time>
      </trkpt>
      <trkpt lat="45.8121" lon="1.84801">
        <ele>686</ele>
        <time>2020-02-28T12:55:39Z</time>
      </trkpt>
      <trkpt lat="45.81201" lon="1.84872">
        <ele>684</ele>
        <time>2020-02-28T12:56:19Z</time>
      </trkpt>
      <trkpt lat="45.81222" lon="1.8491">
        <ele>679</ele>
        <time>2020-02-28T12:56:46Z</time>
      </trkpt>
      <trkpt lat="45.81277" lon="1.84866">
        <ele>678</ele>
        <time>2020-02-28T12:57:37Z</time>
      </trkpt>
      <trkpt lat="45.81317" lon="1.84872">
        <ele>674</ele>
        <time>2020-02-28T12:58:09Z</time>
      </trkpt>
      <trkpt lat="45.81339" lon="1.84919">
        <ele>670</ele>
        <time>2020-02-28T12:58:41Z</time>
      </trkpt>
      <trkpt lat="45.81339" lon="1.84975">
        <ele>667</ele>
        <time>2020-02-28T12:59:12Z</time>
      </trkpt>
      <trkpt lat="45.81339" lon="1.8497">
        <ele>668</ele>
        <time>2020-02-28T13:47:38Z</time>
      </trkpt>
      <trkpt lat="45.81383" lon="1.84928">
        <ele>669</ele>
        <time>2020-02-28T13:48:20Z</time>
      </trkpt>
      <trkpt lat="45.81528" lon="1.84506">
        <ele>631</ele>
        <time>2020-02-28T13:52:43Z</time>
      </trkpt>
      <trkpt lat="45.81627" lon="1.84495">
        <ele>626</ele>
        <time>2020-02-28T13:54:02Z</time>
      </trkpt>
      <trkpt lat="45.81658" lon="1.84446">
        <ele>625</ele>
        <time>2020-02-28T13:54:39Z</time>
      </trkpt>
      <trkpt lat="45.81806" lon="1.84374">
        <ele>635</ele>
        <time>2020-02-28T13:56:44Z</time>
      </trkpt>
      <trkpt lat="45.81977" lon="1.8445">
        <ele>647</ele>
        <time>2020-02-28T13:59:08Z</time>
      </trkpt>
      <trkpt lat="45.82031" lon="1.84433">
        <ele>649</ele>
        <time>2020-02-28T13:59:52Z</time>
      </trkpt>
      <trkpt lat="45.82111" lon="1.84446">
        <ele>650</ele>
        <time>2020-02-28T14:00:56Z</time>
      </trkpt>
      <trkpt lat="45.82238" lon="1.84493">
        <ele>647</ele>
        <time>2020-02-28T14:02:41Z</time>
      </trkpt>
      <trkpt lat="45.82305" lon="1.8445">
        <ele>652</ele>
        <time>2020-02-28T14:03:40Z</time>
      </trkpt>
      <trkpt lat="45.82342" lon="1.84431">
        <ele>654</ele>
        <time>2020-02-28T14:04:11Z</time>
      </trkpt>
      <trkpt lat="45.82378" lon="1.84421">
        <ele>655</ele>
        <time>2020-02-28T14:04:41Z</time>
      </trkpt>
      <trkpt lat="45.82759" lon="1.83655">
        <ele>610</ele>
        <time>2020-02-28T14:13:26Z</time>
      </trkpt>
      <trkpt lat="45.82652" lon="1.83463">
        <ele>601</ele>
        <time>2020-02-28T14:15:43Z</time>
      </trkpt>
      <trkpt lat="45.82722" lon="1.8334">
        <ele>612</ele>
        <time>2020-02-28T14:17:12Z</time>
      </trkpt>
      <trkpt lat="45.82768" lon="1.83281">
        <ele>614</ele>
        <time>2020-02-28T14:18:01Z</time>
      </trkpt>
      <trkpt lat="45.82807" lon="1.8321">
        <ele>612</ele>
        <time>2020-02-28T14:18:52Z</time>
      </trkpt>
      <trkpt lat="45.82753" lon="1.83114">
        <ele>611</ele>
        <time>2020-02-28T14:20:00Z</time>
      </trkpt>
      <trkpt lat="45.82698" lon="1.83079">
        <ele>608</ele>
        <time>2020-02-28T14:20:49Z</time>
      </trkpt>
      <trkpt lat="45.82653" lon="1.83015">
        <ele>609</ele>
        <time>2020-02-28T14:21:39Z</time>
      </trkpt>
      <trkpt lat="45.82596" lon="1.83032">
        <ele>607</ele>
        <time>2020-02-28T14:22:26Z</time>
      </trkpt>
      <trkpt lat="45.82504" lon="1.83004">
        <ele>604</ele>
        <time>2020-02-28T14:23:41Z</time>
      </trkpt>
      <trkpt lat="45.82475" lon="1.82985">
        <ele>603</ele>
        <time>2020-02-28T14:24:07Z</time>
      </trkpt>
      <trkpt lat="45.82445" lon="1.82947">
        <ele>601</ele>
        <time>2020-02-28T14:24:39Z</time>
      </trkpt>
      <trkpt lat="45.82343" lon="1.82964">
        <ele>590</ele>
        <time>2020-02-28T14:26:01Z</time>
      </trkpt>
      <trkpt lat="45.82287" lon="1.82864">
        <ele>587</ele>
        <time>2020-02-28T14:27:13Z</time>
      </trkpt>
      <trkpt lat="45.82234" lon="1.82965">
        <ele>585</ele>
        <time>2020-02-28T14:28:23Z</time>
      </trkpt>
      <trkpt lat="45.82126" lon="1.82972">
        <ele>594</ele>
        <time>2020-02-28T14:29:50Z</time>
      </trkpt>
      <trkpt lat="45.82086" lon="1.82908">
        <ele>597</ele>
        <time>2020-02-28T14:30:38Z</time>
      </trkpt>
      <trkpt lat="45.82113" lon="1.82844">
        <ele>596</ele>
        <time>2020-02-28T14:31:19Z</time>
      </trkpt>
      <trkpt lat="45.82022" lon="1.82703">
        <ele>589</ele>
        <time>2020-02-28T14:33:07Z</time>
      </trkpt>
      <trkpt lat="45.81998" lon="1.82549">
        <ele>577</ele>
        <time>2020-02-28T14:34:35Z</time>
      </trkpt>
      <trkpt lat="45.8198" lon="1.82488">
        <ele>574</ele>
        <time>2020-02-28T14:35:12Z</time>
      </trkpt>
      <trkpt lat="45.81908" lon="1.82476">
        <ele>579</ele>
        <time>2020-02-28T14:36:10Z</time>
      </trkpt>
      <trkpt lat="45.81874" lon="1.82444">
        <ele>583</ele>
        <time>2020-02-28T14:36:42Z</time>
      </trkpt>
      <trkpt lat="45.81889" lon="1.82392">
        <ele>586</ele>
        <time>2020-02-28T14:37:14Z</time>
      </trkpt>
      <trkpt lat="45.81963" lon="1.82356">
        <ele>582</ele>
        <time>2020-02-28T14:38:16Z</time>
      </trkpt>
      <trkpt lat="45.81978" lon="1.82147">
        <ele>590</ele>
        <time>2020-02-28T14:40:13Z</time>
      </trkpt>
      <trkpt lat="45.8203" lon="1.82092">
        <ele>586</ele>
        <time>2020-02-28T14:41:05Z</time>
      </trkpt>
      <trkpt lat="45.82034" lon="1.81989">
        <ele>589</ele>
        <time>2020-02-28T14:42:03Z</time>
      </trkpt>
      <trkpt lat="45.82088" lon="1.81985">
        <ele>593</ele>
        <time>2020-02-28T14:42:46Z</time>
      </trkpt>
      <trkpt lat="45.82087" lon="1.81927">
        <ele>594</ele>
        <time>2020-02-28T14:43:18Z</time>
      </trkpt>
      <trkpt lat="45.82101" lon="1.81882">
        <ele>595</ele>
        <time>2020-02-28T14:43:46Z</time>
      </trkpt>
      <trkpt lat="45.82186" lon="1.81836">
        <ele>592</ele>
        <time>2020-02-28T14:44:59Z</time>
      </trkpt>
      <trkpt lat="45.82265" lon="1.81822">
        <ele>589</ele>
        <time>2020-02-28T14:46:02Z</time>
      </trkpt>
      <trkpt lat="45.82325" lon="1.8179">
        <ele>583</ele>
        <time>2020-02-28T14:46:54Z</time>
      </trkpt>
      <trkpt lat="45.82361" lon="1.81802">
        <ele>581</ele>
        <time>2020-02-28T14:47:23Z</time>
      </trkpt>
      <trkpt lat="45.824" lon="1.81834">
        <ele>579</ele>
        <time>2020-02-28T14:47:59Z</time>
      </trkpt>
      <trkpt lat="45.82432" lon="1.81914">
        <ele>581</ele>
        <time>2020-02-28T14:48:51Z</time>
      </trkpt>
      <trkpt lat="45.82472" lon="1.81962">
        <ele>581</ele>
        <time>2020-02-28T14:49:32Z</time>
      </trkpt>
      <trkpt lat="45.82514" lon="1.82003">
        <ele>577</ele>
        <time>2020-02-28T14:50:13Z</time>
      </trkpt>
      <trkpt lat="45.82562" lon="1.82009">
        <ele>573</ele>
        <time>2020-02-28T14:50:52Z</time>
      </trkpt>
      <trkpt lat="45.8278" lon="1.81789">
        <ele>584</ele>
        <time>2020-02-28T14:54:25Z</time>
      </trkpt>
      <trkpt lat="45.82692" lon="1.81735">
        <ele>593</ele>
        <time>2020-02-28T14:55:42Z</time>
      </trkpt>
      <trkpt lat="45.82671" lon="1.81677">
        <ele>596</ele>
        <time>2020-02-28T14:56:18Z</time>
      </trkpt>
      <trkpt lat="45.82674" lon="1.81564">
        <ele>597</ele>
        <time>2020-02-28T14:57:21Z</time>
      </trkpt>
      <trkpt lat="45.82747" lon="1.81474">
        <ele>598</ele>
        <time>2020-02-28T14:58:38Z</time>
      </trkpt>
      <trkpt lat="45.82782" lon="1.81399">
        <ele>606</ele>
        <time>2020-02-28T14:59:29Z</time>
      </trkpt>
      <trkpt lat="45.82776" lon="1.81351">
        <ele>608</ele>
        <time>2020-02-28T14:59:56Z</time>
      </trkpt>
      <trkpt lat="45.82978" lon="1.81156">
        <ele>624</ele>
        <time>2020-02-28T15:03:11Z</time>
      </trkpt>
      <trkpt lat="45.83072" lon="1.81162">
        <ele>613</ele>
        <time>2020-02-28T15:04:26Z</time>
      </trkpt>
      <trkpt lat="45.83127" lon="1.81238">
        <ele>602</ele>
        <time>2020-02-28T15:05:27Z</time>
      </trkpt>
      <trkpt lat="45.83195" lon="1.81241">
        <ele>596</ele>
        <time>2020-02-28T15:06:22Z</time>
      </trkpt>
      <trkpt lat="45.83193" lon="1.81148">
        <ele>591</ele>
        <time>2020-02-28T15:07:14Z</time>
      </trkpt>
      <trkpt lat="45.83139" lon="1.81026">
        <ele>586</ele>
        <time>2020-02-28T15:08:34Z</time>
      </trkpt>
      <trkpt lat="45.83143" lon="1.80923">
        <ele>574</ele>
        <time>2020-02-28T15:09:32Z</time>
      </trkpt>
      <trkpt lat="45.83119" lon="1.80849">
        <ele>568</ele>
        <time>2020-02-28T15:10:17Z</time>
      </trkpt>
      <trkpt lat="45.83075" lon="1.8075">
        <ele>555</ele>
        <time>2020-02-28T15:11:23Z</time>
      </trkpt>
      <trkpt lat="45.83035" lon="1.80673">
        <ele>550</ele>
        <time>2020-02-28T15:12:16Z</time>
      </trkpt>
      <trkpt lat="45.82957" lon="1.8059">
        <ele>553</ele>
        <time>2020-02-28T15:13:34Z</time>
      </trkpt>
      <trkpt lat="45.82913" lon="1.80532">
        <ele>554</ele>
        <time>2020-02-28T15:14:22Z</time>
      </trkpt>
      <trkpt lat="45.82879" lon="1.80465">
        <ele>548</ele>
        <time>2020-02-28T15:15:08Z</time>
      </trkpt>
      <trkpt lat="45.8291" lon="1.8041">
        <ele>547</ele>
        <time>2020-02-28T15:15:48Z</time>
      </trkpt>
      <trkpt lat="45.8291" lon="1.80368">
        <ele>551</ele>
        <time>2020-02-28T15:16:11Z</time>
      </trkpt>
      <trkpt lat="45.82941" lon="1.80336">
        <ele>553</ele>
        <time>2020-02-28T15:16:42Z</time>
      </trkpt>
      <trkpt lat="45.83121" lon="1.80344">
        <ele>549</ele>
        <time>2020-02-28T15:19:06Z</time>
      </trkpt>
      <trkpt lat="45.83353" lon="1.80358">
        <ele>543</ele>
        <time>2020-02-28T15:22:12Z</time>
      </trkpt>
      <trkpt lat="45.83491" lon="1.80437">
        <ele>538</ele>
        <time>2020-02-28T15:24:11Z</time>
      </trkpt>
      <trkpt lat="45.83582" lon="1.80391">
        <ele>542</ele>
        <time>2020-02-28T15:25:28Z</time>
      </trkpt>
      <trkpt lat="45.83752" lon="1.80312">
        <ele>538</ele>
        <time>2020-02-28T15:27:51Z</time>
      </trkpt>
      <trkpt lat="45.83865" lon="1.80324">
        <ele>527</ele>
        <time>2020-02-28T15:29:22Z</time>
      </trkpt>
      <trkpt lat="45.8394" lon="1.80294">
        <ele>530</ele>
        <time>2020-02-28T15:30:24Z</time>
      </trkpt>
      <trkpt lat="45.83981" lon="1.80342">
        <ele>518</ele>
        <time>2020-02-28T15:31:07Z</time>
      </trkpt>
      <trkpt lat="45.84013" lon="1.80393">
        <ele>512</ele>
        <time>2020-02-28T15:31:45Z</time>
      </trkpt>
      <trkpt lat="45.84041" lon="1.80528">
        <ele>508</ele>
        <time>2020-02-28T15:33:03Z</time>
      </trkpt>
      <trkpt lat="45.84113" lon="1.80605">
        <ele>508</ele>
        <time>2020-02-28T15:34:15Z</time>
      </trkpt>
      <trkpt lat="45.84086" lon="1.80653">
        <ele>507</ele>
        <time>2020-02-28T15:34:50Z</time>
      </trkpt>
      <trkpt lat="45.8415" lon="1.80784">
        <ele>510</ele>
        <time>2020-02-28T15:36:19Z</time>
      </trkpt>
      <trkpt lat="45.84191" lon="1.80816">
        <ele>506</ele>
        <time>2020-02-28T15:36:56Z</time>
      </trkpt>
      <trkpt lat="45.84482" lon="1.80723">
        <ele>494</ele>
        <time>2020-02-28T15:40:55Z</time>
      </trkpt>
      <trkpt lat="45.84515" lon="1.80665">
        <ele>494</ele>
        <time>2020-02-28T15:41:37Z</time>
      </trkpt>
      <trkpt lat="45.84737" lon="1.80508">
        <ele>493</ele>
        <time>2020-02-28T15:44:55Z</time>
      </trkpt>
      <trkpt lat="45.84879" lon="1.80443">
        <ele>498</ele>
        <time>2020-02-28T15:46:54Z</time>
      </trkpt>
      <trkpt lat="45.84859" lon="1.80507">
        <ele>493</ele>
        <time>2020-02-28T15:47:33Z</time>
      </trkpt>
      <trkpt lat="45.84796" lon="1.80608">
        <ele>492</ele>
        <time>2020-02-28T15:48:49Z</time>
      </trkpt>
      <trkpt lat="45.84744" lon="1.80714">
        <ele>497</ele>
        <time>2020-02-28T15:50:01Z</time>
      </trkpt>
      <trkpt lat="45.84781" lon="1.80711">
        <ele>496</ele>
        <time>2020-02-28T15:50:31Z</time>
      </trkpt>
      <trkpt lat="45.8478" lon="1.80753">
        <ele>498</ele>
        <time>2020-02-28T15:50:54Z</time>
      </trkpt>
      <trkpt lat="45.84813" lon="1.80797">
        <ele>504</ele>
        <time>2020-02-28T15:51:30Z</time>
      </trkpt>
      <trkpt lat="45.84839" lon="1.80791">
        <ele>503</ele>
        <time>2020-02-28T15:51:52Z</time>
      </trkpt>
      <trkpt lat="45.84947" lon="1.80944">
        <ele>529</ele>
        <time>2020-02-28T15:53:53Z</time>
      </trkpt>
      <trkpt lat="45.85104" lon="1.80978">
        <ele>524</ele>
        <time>2020-02-28T15:56:00Z</time>
      </trkpt>
      <trkpt lat="45.85255" lon="1.81063">
        <ele>514</ele>
        <time>2020-02-28T15:58:10Z</time>
      </trkpt>
      <trkpt lat="45.85366" lon="1.81011">
        <ele>510</ele>
        <time>2020-02-28T15:59:44Z</time>
      </trkpt>
      <trkpt lat="45.85432" lon="1.81001">
        <ele>506</ele>
        <time>2020-02-28T16:00:37Z</time>
      </trkpt>
      <trkpt lat="45.85505" lon="1.80932">
        <ele>498</ele>
        <time>2020-02-28T16:01:47Z</time>
      </trkpt>
      <trkpt lat="45.8581" lon="1.80904">
        <ele>498</ele>
        <time>2020-02-28T16:05:51Z</time>
      </trkpt>
      <trkpt lat="45.85814" lon="1.80905">
        <ele>498</ele>
        <time>2020-02-28T12:54:37Z</time>
      </trkpt>
      <trkpt lat="45.8577" lon="1.80779">
        <ele>491</ele>
        <time>2020-02-28T12:53:18Z</time>
      </trkpt>
      <trkpt lat="45.85818" lon="1.8047">
        <ele>498</ele>
        <time>2020-02-28T12:50:22Z</time>
      </trkpt>
      <trkpt lat="45.8589" lon="1.80475">
        <ele>496</ele>
        <time>2020-02-28T12:49:24Z</time>
      </trkpt>
      <trkpt lat="45.8597" lon="1.80382">
        <ele>499</ele>
        <time>2020-02-28T12:48:02Z</time>
      </trkpt>
      <trkpt lat="45.86002" lon="1.80366">
        <ele>497</ele>
        <time>2020-02-28T12:47:34Z</time>
      </trkpt>
      <trkpt lat="45.86056" lon="1.80372">
        <ele>498</ele>
        <time>2020-02-28T12:46:51Z</time>
      </trkpt>
      <trkpt lat="45.85999" lon="1.80295">
        <ele>506</ele>
        <time>2020-02-28T12:45:48Z</time>
      </trkpt>
      <trkpt lat="45.85978" lon="1.80229">
        <ele>515</ele>
        <time>2020-02-28T12:45:08Z</time>
      </trkpt>
      <trkpt lat="45.85926" lon="1.80151">
        <ele>530</ele>
        <time>2020-02-28T12:44:08Z</time>
      </trkpt>
      <trkpt lat="45.85883" lon="1.80146">
        <ele>538</ele>
        <time>2020-02-28T12:43:33Z</time>
      </trkpt>
      <trkpt lat="45.8587" lon="1.80135">
        <ele>541</ele>
        <time>2020-02-28T12:43:21Z</time>
      </trkpt>
      <trkpt lat="45.85892" lon="1.80061">
        <ele>542</ele>
        <time>2020-02-28T12:42:36Z</time>
      </trkpt>
      <trkpt lat="45.85894" lon="1.80011">
        <ele>544</ele>
        <time>2020-02-28T12:42:08Z</time>
      </trkpt>
      <trkpt lat="45.85865" lon="1.79947">
        <ele>548</ele>
        <time>2020-02-28T12:41:26Z</time>
      </trkpt>
      <trkpt lat="45.85812" lon="1.79904">
        <ele>552</ele>
        <time>2020-02-28T12:40:37Z</time>
      </trkpt>
      <trkpt lat="45.85778" lon="1.79962">
        <ele>559</ele>
        <time>2020-02-28T12:39:55Z</time>
      </trkpt>
      <trkpt lat="45.85761" lon="1.79951">
        <ele>559</ele>
        <time>2020-02-28T12:39:40Z</time>
      </trkpt>
      <trkpt lat="45.85768" lon="1.79906">
        <ele>554</ele>
        <time>2020-02-28T12:39:14Z</time>
      </trkpt>
      <trkpt lat="45.85726" lon="1.79898">
        <ele>551</ele>
        <time>2020-02-28T12:38:40Z</time>
      </trkpt>
      <trkpt lat="45.85698" lon="1.79915">
        <ele>552</ele>
        <time>2020-02-28T12:38:16Z</time>
      </trkpt>
      <trkpt lat="45.85662" lon="1.79898">
        <ele>545</ele>
        <time>2020-02-28T12:37:45Z</time>
      </trkpt>
      <trkpt lat="45.85621" lon="1.79904">
        <ele>540</ele>
        <time>2020-02-28T12:37:12Z</time>
      </trkpt>
      <trkpt lat="45.8563" lon="1.79856">
        <ele>535</ele>
        <time>2020-02-28T12:36:45Z</time>
      </trkpt>
      <trkpt lat="45.85582" lon="1.7985">
        <ele>532</ele>
        <time>2020-02-28T12:36:06Z</time>
      </trkpt>
      <trkpt lat="45.85554" lon="1.7986">
        <ele>539</ele>
        <time>2020-02-28T12:35:43Z</time>
      </trkpt>
      <trkpt lat="45.85523" lon="1.79889">
        <ele>542</ele>
        <time>2020-02-28T12:35:13Z</time>
      </trkpt>
      <trkpt lat="45.85499" lon="1.79947">
        <ele>537</ele>
        <time>2020-02-28T12:34:36Z</time>
      </trkpt>
      <trkpt lat="45.85495" lon="1.79901">
        <ele>545</ele>
        <time>2020-02-28T12:34:10Z</time>
      </trkpt>
      <trkpt lat="45.8551" lon="1.79847">
        <ele>552</ele>
        <time>2020-02-28T12:33:38Z</time>
      </trkpt>
      <trkpt lat="45.8551" lon="1.79773">
        <ele>559</ele>
        <time>2020-02-28T12:32:56Z</time>
      </trkpt>
      <trkpt lat="45.85523" lon="1.79681">
        <ele>555</ele>
        <time>2020-02-28T12:32:04Z</time>
      </trkpt>
      <trkpt lat="45.8547" lon="1.79626">
        <ele>563</ele>
        <time>2020-02-28T12:31:12Z</time>
      </trkpt>
      <trkpt lat="45.85395" lon="1.79578">
        <ele>570</ele>
        <time>2020-02-28T12:30:06Z</time>
      </trkpt>
      <trkpt lat="45.85277" lon="1.79574">
        <ele>584</ele>
        <time>2020-02-28T12:28:31Z</time>
      </trkpt>
      <trkpt lat="45.85124" lon="1.79592">
        <ele>600</ele>
        <time>2020-02-28T12:26:28Z</time>
      </trkpt>
      <trkpt lat="45.85032" lon="1.79554">
        <ele>600</ele>
        <time>2020-02-28T12:25:12Z</time>
      </trkpt>
      <trkpt lat="45.84833" lon="1.79571">
        <ele>611</ele>
        <time>2020-02-28T12:22:32Z</time>
      </trkpt>
      <trkpt lat="45.84774" lon="1.79539">
        <ele>611</ele>
        <time>2020-02-28T12:21:42Z</time>
      </trkpt>
      <trkpt lat="45.84654" lon="1.79545">
        <ele>615</ele>
        <time>2020-02-28T12:20:05Z</time>
      </trkpt>
      <trkpt lat="45.84387" lon="1.79524">
        <ele>617</ele>
        <time>2020-02-28T12:16:31Z</time>
      </trkpt>
      <trkpt lat="45.84315" lon="1.79415">
        <ele>618</ele>
        <time>2020-02-28T12:15:08Z</time>
      </trkpt>
      <trkpt lat="45.84251" lon="1.79345">
        <ele>620</ele>
        <time>2020-02-28T12:14:03Z</time>
      </trkpt>
      <trkpt lat="45.84191" lon="1.793">
        <ele>617</ele>
        <time>2020-02-28T12:13:09Z</time>
      </trkpt>
      <trkpt lat="45.84112" lon="1.79267">
        <ele>610</ele>
        <time>2020-02-28T12:12:03Z</time>
      </trkpt>
      <trkpt lat="45.84053" lon="1.79257">
        <ele>606</ele>
        <time>2020-02-28T12:11:16Z</time>
      </trkpt>
      <trkpt lat="45.84024" lon="1.79244">
        <ele>602</ele>
        <time>2020-02-28T12:10:51Z</time>
      </trkpt>
      <trkpt lat="45.83959" lon="1.7914">
        <ele>592</ele>
        <time>2020-02-28T12:09:33Z</time>
      </trkpt>
      <trkpt lat="45.83818" lon="1.79085">
        <ele>588</ele>
        <time>2020-02-28T12:07:36Z</time>
      </trkpt>
      <trkpt lat="45.83749" lon="1.79086">
        <ele>591</ele>
        <time>2020-02-28T12:06:41Z</time>
      </trkpt>
      <trkpt lat="45.83734" lon="1.79067">
        <ele>589</ele>
        <time>2020-02-28T12:06:25Z</time>
      </trkpt>
      <trkpt lat="45.83734" lon="1.78932">
        <ele>590</ele>
        <time>2020-02-28T12:05:10Z</time>
      </trkpt>
      <trkpt lat="45.83684" lon="1.78913">
        <ele>593</ele>
        <time>2020-02-28T12:04:28Z</time>
      </trkpt>
      <trkpt lat="45.83629" lon="1.78971">
        <ele>593</ele>
        <time>2020-02-28T12:03:34Z</time>
      </trkpt>
      <trkpt lat="45.83575" lon="1.78998">
        <ele>597</ele>
        <time>2020-02-28T12:02:48Z</time>
      </trkpt>
      <trkpt lat="45.83521" lon="1.79006">
        <ele>598</ele>
        <time>2020-02-28T12:02:04Z</time>
      </trkpt>
      <trkpt lat="45.83469" lon="1.79029">
        <ele>599</ele>
        <time>2020-02-28T12:01:21Z</time>
      </trkpt>
      <trkpt lat="45.83439" lon="1.79057">
        <ele>601</ele>
        <time>2020-02-28T12:00:52Z</time>
      </trkpt>
      <trkpt lat="45.83403" lon="1.79068">
        <ele>603</ele>
        <time>2020-02-28T12:00:23Z</time>
      </trkpt>
      <trkpt lat="45.83395" lon="1.79128">
        <ele>609</ele>
        <time>2020-02-28T11:59:49Z</time>
      </trkpt>
      <trkpt lat="45.83452" lon="1.79184">
        <ele>611</ele>
        <time>2020-02-28T11:58:53Z</time>
      </trkpt>
      <trkpt lat="45.8344" lon="1.79276">
        <ele>622</ele>
        <time>2020-02-28T11:58:01Z</time>
      </trkpt>
      <trkpt lat="45.83544" lon="1.79384">
        <ele>624</ele>
        <time>2020-02-28T11:56:18Z</time>
      </trkpt>
      <trkpt lat="45.83591" lon="1.79498">
        <ele>632</ele>
        <time>2020-02-28T11:55:04Z</time>
      </trkpt>
      <trkpt lat="45.83589" lon="1.79601">
        <ele>641</ele>
        <time>2020-02-28T11:54:07Z</time>
      </trkpt>
      <trkpt lat="45.83561" lon="1.79603">
        <ele>644</ele>
        <time>2020-02-28T11:53:44Z</time>
      </trkpt>
      <trkpt lat="45.83443" lon="1.79533">
        <ele>649</ele>
        <time>2020-02-28T11:52:02Z</time>
      </trkpt>
      <trkpt lat="45.8339" lon="1.79542">
        <ele>654</ele>
        <time>2020-02-28T11:51:20Z</time>
      </trkpt>
      <trkpt lat="45.8334" lon="1.79576">
        <ele>661</ele>
        <time>2020-02-28T11:50:35Z</time>
      </trkpt>
      <trkpt lat="45.83304" lon="1.79621">
        <ele>665</ele>
        <time>2020-02-28T11:49:57Z</time>
      </trkpt>
      <trkpt lat="45.8328" lon="1.79805">
        <ele>661</ele>
        <time>2020-02-28T11:48:13Z</time>
      </trkpt>
      <trkpt lat="45.83237" lon="1.79884">
        <ele>656</ele>
        <time>2020-02-28T11:47:17Z</time>
      </trkpt>
      <trkpt lat="45.83102" lon="1.7999">
        <ele>649</ele>
        <time>2020-02-28T11:45:13Z</time>
      </trkpt>
      <trkpt lat="45.82962" lon="1.80027">
        <ele>649</ele>
        <time>2020-02-28T11:43:19Z</time>
      </trkpt>
      <trkpt lat="45.8286" lon="1.80013">
        <ele>645</ele>
        <time>2020-02-28T11:41:57Z</time>
      </trkpt>
      <trkpt lat="45.82829" lon="1.80006">
        <ele>640</ele>
        <time>2020-02-28T11:41:32Z</time>
      </trkpt>
      <trkpt lat="45.82809" lon="1.80023">
        <ele>629</ele>
        <time>2020-02-28T11:41:14Z</time>
      </trkpt>
      <trkpt lat="45.82912" lon="1.80108">
        <ele>630</ele>
        <time>2020-02-28T11:39:39Z</time>
      </trkpt>
      <trkpt lat="45.82976" lon="1.80138">
        <ele>615</ele>
        <time>2020-02-28T11:38:45Z</time>
      </trkpt>
      <trkpt lat="45.82907" lon="1.80185">
        <ele>602</ele>
        <time>2020-02-28T11:37:43Z</time>
      </trkpt>
      <trkpt lat="45.82803" lon="1.80194">
        <ele>586</ele>
        <time>2020-02-28T11:36:20Z</time>
      </trkpt>
      <trkpt lat="45.82739" lon="1.80145">
        <ele>582</ele>
        <time>2020-02-28T11:35:22Z</time>
      </trkpt>
      <trkpt lat="45.82711" lon="1.80147">
        <ele>573</ele>
        <time>2020-02-28T11:35:00Z</time>
      </trkpt>
      <trkpt lat="45.82789" lon="1.80244">
        <ele>568</ele>
        <time>2020-02-28T11:33:37Z</time>
      </trkpt>
      <trkpt lat="45.82842" lon="1.80319">
        <ele>555</ele>
        <time>2020-02-28T11:32:37Z</time>
      </trkpt>
      <trkpt lat="45.82847" lon="1.80371">
        <ele>549</ele>
        <time>2020-02-28T11:32:08Z</time>
      </trkpt>
      <trkpt lat="45.82832" lon="1.80356">
        <ele>549</ele>
        <time>2020-02-28T11:31:53Z</time>
      </trkpt>
      <trkpt lat="45.82805" lon="1.80365">
        <ele>545</ele>
        <time>2020-02-28T11:31:31Z</time>
      </trkpt>
      <trkpt lat="45.82774" lon="1.80395">
        <ele>540</ele>
        <time>2020-02-28T11:31:01Z</time>
      </trkpt>
      <trkpt lat="45.82727" lon="1.80365">
        <ele>538</ele>
        <time>2020-02-28T11:30:20Z</time>
      </trkpt>
      <trkpt lat="45.82653" lon="1.80298">
        <ele>535</ele>
        <time>2020-02-28T11:29:10Z</time>
      </trkpt>
      <trkpt lat="45.82491" lon="1.80123">
        <ele>516</ele>
        <time>2020-02-28T11:26:28Z</time>
      </trkpt>
      <trkpt lat="45.8245" lon="1.80107">
        <ele>510</ele>
        <time>2020-02-28T11:25:54Z</time>
      </trkpt>
      <trkpt lat="45.82388" lon="1.8004">
        <ele>505</ele>
        <time>2020-02-28T11:24:51Z</time>
      </trkpt>
      <trkpt lat="45.82319" lon="1.80028">
        <ele>506</ele>
        <time>2020-02-28T11:23:56Z</time>
      </trkpt>
      <trkpt lat="45.82212" lon="1.80073">
        <ele>500</ele>
        <time>2020-02-28T11:22:27Z</time>
      </trkpt>
      <trkpt lat="45.82154" lon="1.80022">
        <ele>504</ele>
        <time>2020-02-28T11:21:32Z</time>
      </trkpt>
      <trkpt lat="45.82116" lon="1.79987">
        <ele>502</ele>
        <time>2020-02-28T11:20:56Z</time>
      </trkpt>
      <trkpt lat="45.82087" lon="1.79931">
        <ele>502</ele>
        <time>2020-02-28T11:20:17Z</time>
      </trkpt>
      <trkpt lat="45.82087" lon="1.79931">
        <ele>502</ele>
        <time>2020-02-28T11:20:17Z</time>
      </trkpt>
      <trkpt lat="45.82088" lon="1.79931">
        <ele>503</ele>
        <time>2020-02-28T11:21:53Z</time>
      </trkpt>
      <trkpt lat="45.82088" lon="1.79931">
        <ele>503</ele>
        <time>2020-02-28T11:21:53Z</time>
      </trkpt>
      <trkpt lat="45.82109" lon="1.80035">
        <ele>495</ele>
        <time>2020-02-28T11:22:53Z</time>
      </trkpt>
      <trkpt lat="45.8219" lon="1.80112">
        <ele>494</ele>
        <time>2020-02-28T11:24:11Z</time>
      </trkpt>
      <trkpt lat="45.82195" lon="1.8024">
        <ele>495</ele>
        <time>2020-02-28T11:25:23Z</time>
      </trkpt>
      <trkpt lat="45.82142" lon="1.80286">
        <ele>503</ele>
        <time>2020-02-28T11:26:12Z</time>
      </trkpt>
      <trkpt lat="45.82088" lon="1.80267">
        <ele>499</ele>
        <time>2020-02-28T11:26:57Z</time>
      </trkpt>
      <trkpt lat="45.8203" lon="1.80274">
        <ele>501</ele>
        <time>2020-02-28T11:27:43Z</time>
      </trkpt>
      <trkpt lat="45.81978" lon="1.8034">
        <ele>511</ele>
        <time>2020-02-28T11:28:39Z</time>
      </trkpt>
      <trkpt lat="45.81934" lon="1.80392">
        <ele>514</ele>
        <time>2020-02-28T11:29:25Z</time>
      </trkpt>
      <trkpt lat="45.81861" lon="1.80539">
        <ele>520</ele>
        <time>2020-02-28T11:31:05Z</time>
      </trkpt>
      <trkpt lat="45.81811" lon="1.8062">
        <ele>522</ele>
        <time>2020-02-28T11:32:06Z</time>
      </trkpt>
      <trkpt lat="45.81792" lon="1.80762">
        <ele>542</ele>
        <time>2020-02-28T11:33:26Z</time>
      </trkpt>
      <trkpt lat="45.81781" lon="1.8083">
        <ele>544</ele>
        <time>2020-02-28T11:34:05Z</time>
      </trkpt>
      <trkpt lat="45.81792" lon="1.80836">
        <ele>547</ele>
        <time>2020-02-28T11:34:15Z</time>
      </trkpt>
      <trkpt lat="45.81801" lon="1.80846">
        <ele>549</ele>
        <time>2020-02-28T11:34:24Z</time>
      </trkpt>
      <trkpt lat="45.81829" lon="1.80987">
        <ele>562</ele>
        <time>2020-02-28T11:35:46Z</time>
      </trkpt>
      <trkpt lat="45.81765" lon="1.8119">
        <ele>589</ele>
        <time>2020-02-28T11:37:50Z</time>
      </trkpt>
      <trkpt lat="45.81624" lon="1.81339">
        <ele>603</ele>
        <time>2020-02-28T11:40:10Z</time>
      </trkpt>
      <trkpt lat="45.81552" lon="1.81443">
        <ele>604</ele>
        <time>2020-02-28T11:41:32Z</time>
      </trkpt>
      <trkpt lat="45.81541" lon="1.81482">
        <ele>604</ele>
        <time>2020-02-28T11:41:56Z</time>
      </trkpt>
      <trkpt lat="45.81575" lon="1.81539">
        <ele>606</ele>
        <time>2020-02-28T11:42:37Z</time>
      </trkpt>
      <trkpt lat="45.816" lon="1.81591">
        <ele>608</ele>
        <time>2020-02-28T11:43:13Z</time>
      </trkpt>
      <trkpt lat="45.81627" lon="1.81613">
        <ele>609</ele>
        <time>2020-02-28T11:43:38Z</time>
      </trkpt>
      <trkpt lat="45.81634" lon="1.81645">
        <ele>608</ele>
        <time>2020-02-28T11:43:56Z</time>
      </trkpt>
      <trkpt lat="45.81612" lon="1.81689">
        <ele>604</ele>
        <time>2020-02-28T11:44:27Z</time>
      </trkpt>
      <trkpt lat="45.81592" lon="1.81694">
        <ele>603</ele>
        <time>2020-02-28T11:44:43Z</time>
      </trkpt>
      <trkpt lat="45.81567" lon="1.81716">
        <ele>603</ele>
        <time>2020-02-28T11:45:06Z</time>
      </trkpt>
      <trkpt lat="45.81536" lon="1.81784">
        <ele>608</ele>
        <time>2020-02-28T11:45:52Z</time>
      </trkpt>
      <trkpt lat="45.81472" lon="1.81669">
        <ele>606</ele>
        <time>2020-02-28T11:47:14Z</time>
      </trkpt>
      <trkpt lat="45.81409" lon="1.81628">
        <ele>604</ele>
        <time>2020-02-28T11:48:09Z</time>
      </trkpt>
      <trkpt lat="45.81224" lon="1.8162">
        <ele>604</ele>
        <time>2020-02-28T11:50:37Z</time>
      </trkpt>
      <trkpt lat="45.81169" lon="1.81656">
        <ele>606</ele>
        <time>2020-02-28T11:51:26Z</time>
      </trkpt>
      <trkpt lat="45.81167" lon="1.81678">
        <ele>609</ele>
        <time>2020-02-28T11:51:38Z</time>
      </trkpt>
      <trkpt lat="45.81072" lon="1.81825">
        <ele>615</ele>
        <time>2020-02-28T11:53:30Z</time>
      </trkpt>
      <trkpt lat="45.81036" lon="1.81895">
        <ele>614</ele>
        <time>2020-02-28T11:54:19Z</time>
      </trkpt>
      <trkpt lat="45.81015" lon="1.81958">
        <ele>616</ele>
        <time>2020-02-28T11:54:57Z</time>
      </trkpt>
      <trkpt lat="45.80991" lon="1.82003">
        <ele>616</ele>
        <time>2020-02-28T11:55:29Z</time>
      </trkpt>
      <trkpt lat="45.80963" lon="1.82034">
        <ele>614</ele>
        <time>2020-02-28T11:55:57Z</time>
      </trkpt>
      <trkpt lat="45.80913" lon="1.82202">
        <ele>622</ele>
        <time>2020-02-28T11:57:39Z</time>
      </trkpt>
      <trkpt lat="45.80928" lon="1.82219">
        <ele>626</ele>
        <time>2020-02-28T11:57:55Z</time>
      </trkpt>
      <trkpt lat="45.80946" lon="1.82261">
        <ele>634</ele>
        <time>2020-02-28T11:58:22Z</time>
      </trkpt>
      <trkpt lat="45.80977" lon="1.82343">
        <ele>652</ele>
        <time>2020-02-28T11:59:14Z</time>
      </trkpt>
      <trkpt lat="45.80975" lon="1.82407">
        <ele>662</ele>
        <time>2020-02-28T11:59:50Z</time>
      </trkpt>
      <trkpt lat="45.8092" lon="1.82464">
        <ele>669</ele>
        <time>2020-02-28T12:00:44Z</time>
      </trkpt>
      <trkpt lat="45.80846" lon="1.82509">
        <ele>672</ele>
        <time>2020-02-28T12:01:49Z</time>
      </trkpt>
      <trkpt lat="45.80764" lon="1.82538">
        <ele>674</ele>
        <time>2020-02-28T12:02:56Z</time>
      </trkpt>
      <trkpt lat="45.80713" lon="1.82581">
        <ele>675</ele>
        <time>2020-02-28T12:03:44Z</time>
      </trkpt>
      <trkpt lat="45.8068" lon="1.82694">
        <ele>683</ele>
        <time>2020-02-28T12:04:52Z</time>
      </trkpt>
      <trkpt lat="45.80672" lon="1.82805">
        <ele>683</ele>
        <time>2020-02-28T12:05:54Z</time>
      </trkpt>
      <trkpt lat="45.80689" lon="1.82961">
        <ele>682</ele>
        <time>2020-02-28T12:07:22Z</time>
      </trkpt>
      <trkpt lat="45.80719" lon="1.83078">
        <ele>679</ele>
        <time>2020-02-28T12:08:32Z</time>
      </trkpt>
      <trkpt lat="45.80717" lon="1.83127">
        <ele>672</ele>
        <time>2020-02-28T12:08:59Z</time>
      </trkpt>
      <trkpt lat="45.80784" lon="1.83168">
        <ele>679</ele>
        <time>2020-02-28T12:09:58Z</time>
      </trkpt>
      <trkpt lat="45.80892" lon="1.83196">
        <ele>687</ele>
        <time>2020-02-28T12:11:26Z</time>
      </trkpt>
      <trkpt lat="45.80967" lon="1.83303">
        <ele>675</ele>
        <time>2020-02-28T12:12:50Z</time>
      </trkpt>
      <trkpt lat="45.8107" lon="1.83152">
        <ele>679</ele>
        <time>2020-02-28T12:14:48Z</time>
      </trkpt>
      <trkpt lat="45.81106" lon="1.83126">
        <ele>681</ele>
        <time>2020-02-28T12:15:21Z</time>
      </trkpt>
      <trkpt lat="45.81188" lon="1.83126">
        <ele>677</ele>
        <time>2020-02-28T12:16:26Z</time>
      </trkpt>
      <trkpt lat="45.81293" lon="1.83194">
        <ele>666</ele>
        <time>2020-02-28T12:17:58Z</time>
      </trkpt>
      <trkpt lat="45.81173" lon="1.83183">
        <ele>667</ele>
        <time>2020-02-28T12:19:35Z</time>
      </trkpt>
      <trkpt lat="45.81136" lon="1.83226">
        <ele>665</ele>
        <time>2020-02-28T12:20:13Z</time>
      </trkpt>
      <trkpt lat="45.81103" lon="1.83339">
        <ele>651</ele>
        <time>2020-02-28T12:21:21Z</time>
      </trkpt>
      <trkpt lat="45.81032" lon="1.83442">
        <ele>652</ele>
        <time>2020-02-28T12:22:42Z</time>
      </trkpt>
      <trkpt lat="45.80976" lon="1.83492">
        <ele>653</ele>
        <time>2020-02-28T12:23:35Z</time>
      </trkpt>
      <trkpt lat="45.80956" lon="1.83522">
        <ele>652</ele>
        <time>2020-02-28T12:23:58Z</time>
      </trkpt>
      <trkpt lat="45.80891" lon="1.83548">
        <ele>652</ele>
        <time>2020-02-28T12:24:52Z</time>
      </trkpt>
      <trkpt lat="45.80733" lon="1.83717">
        <ele>635</ele>
        <time>2020-02-28T12:27:30Z</time>
      </trkpt>
      <trkpt lat="45.80642" lon="1.83705">
        <ele>639</ele>
        <time>2020-02-28T12:28:43Z</time>
      </trkpt>
      <trkpt lat="45.80632" lon="1.83727">
        <ele>640</ele>
        <time>2020-02-28T12:28:58Z</time>
      </trkpt>
      <trkpt lat="45.80674" lon="1.83789">
        <ele>643</ele>
        <time>2020-02-28T12:29:46Z</time>
      </trkpt>
      <trkpt lat="45.80689" lon="1.8382">
        <ele>644</ele>
        <time>2020-02-28T12:30:07Z</time>
      </trkpt>
      <trkpt lat="45.80695" lon="1.83913">
        <ele>653</ele>
        <time>2020-02-28T12:30:59Z</time>
      </trkpt>
      <trkpt lat="45.80703" lon="1.83973">
        <ele>653</ele>
        <time>2020-02-28T12:31:33Z</time>
      </trkpt>
      <trkpt lat="45.80747" lon="1.84033">
        <ele>654</ele>
        <time>2020-02-28T12:32:22Z</time>
      </trkpt>
      <trkpt lat="45.80749" lon="1.84075">
        <ele>656</ele>
        <time>2020-02-28T12:32:45Z</time>
      </trkpt>
      <trkpt lat="45.80749" lon="1.84139">
        <ele>660</ele>
        <time>2020-02-28T12:33:21Z</time>
      </trkpt>
    </trkseg>
  </trk>
</gpx>